Terminal Aerodrome Forecast
Issued by NWS

Home | Current Version | Previous Version | Text Only | Print | Product List | Glossary On
Versions: 1 2 3 4 5 6 7 8 9 10 11 12 13 14 15 16 17 18 19 20
309
FTUS43 KDLH 172326
TAFBRD
TAF
KBRD 172326Z 1800/1824 34015KT 4SM TSRA BKN090CB
      TEMPO 1800/1801 4SM -TSRA OVC040CB
     FM180200 17007KT P6SM VCTS BKN090CB
     FM181000 26004KT 6SM BR VCTS BKN090CB
     FM181400 34004KT 5SM BR VCTS BKN080CB
     FM181800 02009KT P6SM OVC140=

USA.gov is the U.S. government's official web portal to all federal, state and local government web resources and services.